sensor_id;sensor_type;location;lat;lon;timestamp;temperature;humidity
74822;DHT22;63353;48.702;8.884;2023-04-01T00:00:03;6.90;99.90
74822;DHT22;63353;48.702;8.884;2023-04-01T00:02:30;6.90;99.90
74822;DHT22;63353;48.702;8.884;2023-04-01T00:05:10;6.90;99.90
74822;DHT22;63353;48.702;8.884;2023-04-01T00:07:38;6.90;99.90
74822;DHT22;63353;48.702;8.884;2023-04-01T00:10:05;6.90;99.90
74822;DHT22;63353;48.702;8.884;2023-04-01T00:12:34;6.90;99.90
74822;DHT22;63353;48.702;8.884;2023-04-01T00:15:01;7.00;99.90
74822;DHT22;63353;48.702;8.884;2023-04-01T00:17:27;7.00;99.90
74822;DHT22;63353;48.702;8.884;2023-04-01T00:19:55;6.90;99.90
74822;DHT22;63353;48.702;8.884;2023-04-01T00:22:33;6.90;99.90
74822;DHT22;63353;48.702;8.884;2023-04-01T00:25:03;6.90;99.90
74822;DHT22;63353;48.702;8.884;2023-04-01T00:27:29;7.00;99.90
74822;DHT22;63353;48.702;8.884;2023-04-01T00:29:55;7.00;99.90
74822;DHT22;63353;48.702;8.884;2023-04-01T00:32:30;6.90;99.90
74822;DHT22;63353;48.702;8.884;2023-04-01T00:34:56;6.80;99.90
74822;DHT22;63353;48.702;8.884;2023-04-01T00:37:27;6.80;99.90
74822;DHT22;63353;48.702;8.884;2023-04-01T00:39:53;6.80;99.90
74822;DHT22;63353;48.702;8.884;2023-04-01T00:42:20;6.80;99.90
74822;DHT22;63353;48.702;8.884;2023-04-01T00:44:49;6.80;99.90
74822;DHT22;63353;48.702;8.884;2023-04-01T00:47:16;6.80;99.90
74822;DHT22;63353;48.702;8.884;2023-04-01T00:49:48;6.70;99.90
74822;DHT22;63353;48.702;8.884;2023-04-01T00:52:25;6.70;99.90
74822;DHT22;63353;48.702;8.884;2023-04-01T00:54:58;6.60;99.90
74822;DHT22;63353;48.702;8.884;2023-04-01T00:57:43;6.60;99.90
74822;DHT22;63353;48.702;8.884;2023-04-01T01:00:11;6.60;99.90
74822;DHT22;63353;48.702;8.884;2023-04-01T01:02:41;6.60;99.90
74822;DHT22;63353;48.702;8.884;2023-04-01T01:05:18;6.60;99.90
74822;DHT22;63353;48.702;8.884;2023-04-01T01:10:49;6.70;99.90
74822;DHT22;63353;48.702;8.884;2023-04-01T01:13:35;6.60;99.90
74822;DHT22;63353;48.702;8.884;2023-04-01T01:16:30;6.60;99.90
74822;DHT22;63353;48.702;8.884;2023-04-01T01:22:21;6.70;99.90
74822;DHT22;63353;48.702;8.884;2023-04-01T01:25:16;6.60;99.90
74822;DHT22;63353;48.702;8.884;2023-04-01T01:27:58;6.70;99.90
74822;DHT22;63353;48.702;8.884;2023-04-01T01:30:49;6.60;99.90
74822;DHT22;63353;48.702;8.884;2023-04-01T01:36:06;6.60;99.90
74822;DHT22;63353;48.702;8.884;2023-04-01T01:38:41;6.60;99.90
74822;DHT22;63353;48.702;8.884;2023-04-01T01:41:16;6.50;99.90
74822;DHT22;63353;48.702;8.884;2023-04-01T01:43:46;6.50;99.90
74822;DHT22;63353;48.702;8.884;2023-04-01T01:46:21;6.60;99.90
74822;DHT22;63353;48.702;8.884;2023-04-01T01:48:49;6.50;99.90
74822;DHT22;63353;48.702;8.884;2023-04-01T01:51:20;6.50;99.90
74822;DHT22;63353;48.702;8.884;2023-04-01T01:53:46;6.50;99.90
74822;DHT22;63353;48.702;8.884;2023-04-01T01:56:12;6.60;99.90
74822;DHT22;63353;48.702;8.884;2023-04-01T01:58:49;6.60;99.90
74822;DHT22;63353;48.702;8.884;2023-04-01T02:01:25;6.60;99.90
74822;DHT22;63353;48.702;8.884;2023-04-01T02:04:04;6.60;99.90
74822;DHT22;63353;48.702;8.884;2023-04-01T02:06:33;6.60;99.90
74822;DHT22;63353;48.702;8.884;2023-04-01T02:09:08;6.60;99.90
74822;DHT22;63353;48.702;8.884;2023-04-01T02:11:54;6.60;99.90
74822;DHT22;63353;48.702;8.884;2023-04-01T02:14:36;6.50;99.90
74822;DHT22;63353;48.702;8.884;2023-04-01T02:17:20;6.50;99.90
74822;DHT22;63353;48.702;8.884;2023-04-01T02:19:51;6.50;99.90
74822;DHT22;63353;48.702;8.884;2023-04-01T02:22:22;6.60;99.90
74822;DHT22;63353;48.702;8.884;2023-04-01T02:24:53;6.60;99.90
74822;DHT22;63353;48.702;8.884;2023-04-01T02:27:20;6.60;99.90
74822;DHT22;63353;48.702;8.884;2023-04-01T02:29:52;6.50;99.90
74822;DHT22;63353;48.702;8.884;2023-04-01T02:32:19;6.60;99.90
74822;DHT22;63353;48.702;8.884;2023-04-01T02:34:46;6.50;99.90
74822;DHT22;63353;48.702;8.884;2023-04-01T02:37:15;6.50;99.90
74822;DHT22;63353;48.702;8.884;2023-04-01T02:39:41;6.50;99.90
74822;DHT22;63353;48.702;8.884;2023-04-01T02:42:08;6.50;99.90
74822;DHT22;63353;48.702;8.884;2023-04-01T02:44:37;6.50;99.90
74822;DHT22;63353;48.702;8.884;2023-04-01T02:47:05;6.40;99.90
74822;DHT22;63353;48.702;8.884;2023-04-01T02:49:31;6.50;99.90
74822;DHT22;63353;48.702;8.884;2023-04-01T02:51:57;6.50;99.90
74822;DHT22;63353;48.702;8.884;2023-04-01T02:54:28;6.40;99.90
74822;DHT22;63353;48.702;8.884;2023-04-01T02:56:54;6.40;99.90
74822;DHT22;63353;48.702;8.884;2023-04-01T02:59:28;6.50;99.90
74822;DHT22;63353;48.702;8.884;2023-04-01T03:01:57;6.40;99.90
74822;DHT22;63353;48.702;8.884;2023-04-01T03:04:23;6.50;99.90
74822;DHT22;63353;48.702;8.884;2023-04-01T03:06:49;6.40;99.90
74822;DHT22;63353;48.702;8.884;2023-04-01T03:09:15;6.40;99.90
74822;DHT22;63353;48.702;8.884;2023-04-01T03:11:41;6.40;99.90
74822;DHT22;63353;48.702;8.884;2023-04-01T03:14:07;6.40;99.90
74822;DHT22;63353;48.702;8.884;2023-04-01T03:16:32;6.40;99.90
74822;DHT22;63353;48.702;8.884;2023-04-01T03:18:58;6.30;99.90
74822;DHT22;63353;48.702;8.884;2023-04-01T03:21:27;6.30;99.90
74822;DHT22;63353;48.702;8.884;2023-04-01T03:23:53;6.30;99.90
74822;DHT22;63353;48.702;8.884;2023-04-01T03:26:18;6.30;99.90
74822;DHT22;63353;48.702;8.884;2023-04-01T03:28:47;6.30;99.90
74822;DHT22;63353;48.702;8.884;2023-04-01T03:31:22;6.30;99.90
74822;DHT22;63353;48.702;8.884;2023-04-01T03:33:48;6.30;99.90
74822;DHT22;63353;48.702;8.884;2023-04-01T03:36:13;6.30;99.90
74822;DHT22;63353;48.702;8.884;2023-04-01T03:38:43;6.30;99.90
74822;DHT22;63353;48.702;8.884;2023-04-01T03:41:14;6.30;99.90
74822;DHT22;63353;48.702;8.884;2023-04-01T03:43:40;6.40;99.90
74822;DHT22;63353;48.702;8.884;2023-04-01T03:46:05;6.30;99.90
74822;DHT22;63353;48.702;8.884;2023-04-01T03:48:31;6.30;99.90
74822;DHT22;63353;48.702;8.884;2023-04-01T03:50:56;6.30;99.90
74822;DHT22;63353;48.702;8.884;2023-04-01T03:53:22;6.10;99.90
74822;DHT22;63353;48.702;8.884;2023-04-01T03:55:54;6.00;99.90
74822;DHT22;63353;48.702;8.884;2023-04-01T03:58:20;6.00;99.90
74822;DHT22;63353;48.702;8.884;2023-04-01T04:00:46;6.00;99.90
74822;DHT22;63353;48.702;8.884;2023-04-01T04:03:12;6.10;99.90
74822;DHT22;63353;48.702;8.884;2023-04-01T04:05:46;6.00;99.90
74822;DHT22;63353;48.702;8.884;2023-04-01T04:08:12;6.00;99.90
74822;DHT22;63353;48.702;8.884;2023-04-01T04:10:38;5.90;99.90
74822;DHT22;63353;48.702;8.884;2023-04-01T04:13:03;5.90;99.90
74822;DHT22;63353;48.702;8.884;2023-04-01T04:15:29;5.90;99.90
74822;DHT22;63353;48.702;8.884;2023-04-01T04:17:55;5.90;99.90
74822;DHT22;63353;48.702;8.884;2023-04-01T04:20:20;5.90;99.90
74822;DHT22;63353;48.702;8.884;2023-04-01T04:22:46;5.90;99.90
74822;DHT22;63353;48.702;8.884;2023-04-01T04:25:13;6.00;99.90
74822;DHT22;63353;48.702;8.884;2023-04-01T04:27:38;6.00;99.90
74822;DHT22;63353;48.702;8.884;2023-04-01T04:30:05;6.00;99.90
74822;DHT22;63353;48.702;8.884;2023-04-01T04:32:32;6.10;99.90
74822;DHT22;63353;48.702;8.884;2023-04-01T04:34:59;6.00;99.90
74822;DHT22;63353;48.702;8.884;2023-04-01T04:37:27;6.00;99.90
74822;DHT22;63353;48.702;8.884;2023-04-01T04:39:56;6.10;99.90
74822;DHT22;63353;48.702;8.884;2023-04-01T04:42:23;6.10;99.90
74822;DHT22;63353;48.702;8.884;2023-04-01T04:44:49;6.10;99.90
74822;DHT22;63353;48.702;8.884;2023-04-01T04:47:15;6.10;99.90
74822;DHT22;63353;48.702;8.884;2023-04-01T04:49:41;6.20;99.90
74822;DHT22;63353;48.702;8.884;2023-04-01T04:52:06;6.10;99.90
74822;DHT22;63353;48.702;8.884;2023-04-01T04:54:32;6.10;99.90
74822;DHT22;63353;48.702;8.884;2023-04-01T04:56:58;6.20;99.90
74822;DHT22;63353;48.702;8.884;2023-04-01T04:59:23;6.20;99.90
74822;DHT22;63353;48.702;8.884;2023-04-01T05:01:49;6.20;99.90
74822;DHT22;63353;48.702;8.884;2023-04-01T05:04:15;6.20;99.90
74822;DHT22;63353;48.702;8.884;2023-04-01T05:06:42;6.30;99.90
74822;DHT22;63353;48.702;8.884;2023-04-01T05:09:09;6.40;99.90
74822;DHT22;63353;48.702;8.884;2023-04-01T05:11:35;6.40;99.90
74822;DHT22;63353;48.702;8.884;2023-04-01T05:14:00;6.50;99.90
74822;DHT22;63353;48.702;8.884;2023-04-01T05:16:26;6.40;99.90
74822;DHT22;63353;48.702;8.884;2023-04-01T05:18:52;6.50;99.90
74822;DHT22;63353;48.702;8.884;2023-04-01T05:21:17;6.50;99.90
74822;DHT22;63353;48.702;8.884;2023-04-01T05:23:43;6.60;99.90
74822;DHT22;63353;48.702;8.884;2023-04-01T05:26:11;6.60;99.90
74822;DHT22;63353;48.702;8.884;2023-04-01T05:28:37;6.70;99.90
74822;DHT22;63353;48.702;8.884;2023-04-01T05:31:05;6.70;99.90
74822;DHT22;63353;48.702;8.884;2023-04-01T05:33:31;6.70;99.90
74822;DHT22;63353;48.702;8.884;2023-04-01T05:36:08;6.60;99.90
74822;DHT22;63353;48.702;8.884;2023-04-01T05:38:35;6.60;99.90
74822;DHT22;63353;48.702;8.884;2023-04-01T05:41:01;6.60;99.90
74822;DHT22;63353;48.702;8.884;2023-04-01T05:43:27;6.60;99.90
74822;DHT22;63353;48.702;8.884;2023-04-01T05:45:54;6.60;99.90
74822;DHT22;63353;48.702;8.884;2023-04-01T05:48:20;6.70;99.90
74822;DHT22;63353;48.702;8.884;2023-04-01T05:50:46;6.70;99.90
74822;DHT22;63353;48.702;8.884;2023-04-01T05:53:11;6.80;99.90
74822;DHT22;63353;48.702;8.884;2023-04-01T05:55:37;6.80;99.90
74822;DHT22;63353;48.702;8.884;2023-04-01T05:58:03;6.90;99.90
74822;DHT22;63353;48.702;8.884;2023-04-01T06:00:28;6.90;99.90
74822;DHT22;63353;48.702;8.884;2023-04-01T06:02:54;7.00;99.90
74822;DHT22;63353;48.702;8.884;2023-04-01T06:05:21;7.00;99.90
74822;DHT22;63353;48.702;8.884;2023-04-01T06:07:47;7.00;99.90
74822;DHT22;63353;48.702;8.884;2023-04-01T06:10:18;6.90;99.90
74822;DHT22;63353;48.702;8.884;2023-04-01T06:13:07;7.00;99.90
74822;DHT22;63353;48.702;8.884;2023-04-01T06:15:40;7.00;99.90
74822;DHT22;63353;48.702;8.884;2023-04-01T06:18:39;7.00;99.90
74822;DHT22;63353;48.702;8.884;2023-04-01T06:21:33;7.00;99.90
74822;DHT22;63353;48.702;8.884;2023-04-01T06:29:54;7.00;99.90
74822;DHT22;63353;48.702;8.884;2023-04-01T06:52:50;6.80;99.90
74822;DHT22;63353;48.702;8.884;2023-04-01T06:57:59;6.90;99.90
74822;DHT22;63353;48.702;8.884;2023-04-01T07:00:35;6.90;99.90
74822;DHT22;63353;48.702;8.884;2023-04-01T07:05:49;7.00;99.90
74822;DHT22;63353;48.702;8.884;2023-04-01T07:08:38;7.00;99.90
74822;DHT22;63353;48.702;8.884;2023-04-01T07:14:42;6.80;99.90
74822;DHT22;63353;48.702;8.884;2023-04-01T07:17:28;6.80;99.90
74822;DHT22;63353;48.702;8.884;2023-04-01T07:22:56;6.70;99.90
74822;DHT22;63353;48.702;8.884;2023-04-01T07:25:33;6.70;99.90
74822;DHT22;63353;48.702;8.884;2023-04-01T07:28:10;6.80;99.90
74822;DHT22;63353;48.702;8.884;2023-04-01T07:30:57;6.80;99.90
74822;DHT22;63353;48.702;8.884;2023-04-01T07:38:52;6.90;99.90
74822;DHT22;63353;48.702;8.884;2023-04-01T07:56:30;7.10;99.90
74822;DHT22;63353;48.702;8.884;2023-04-01T08:01:29;7.10;99.90
74822;DHT22;63353;48.702;8.884;2023-04-01T08:07:04;7.20;99.90
74822;DHT22;63353;48.702;8.884;2023-04-01T08:17:52;7.20;99.90
74822;DHT22;63353;48.702;8.884;2023-04-01T08:23:19;7.20;99.90
74822;DHT22;63353;48.702;8.884;2023-04-01T08:26:03;7.30;99.90
74822;DHT22;63353;48.702;8.884;2023-04-01T08:28:39;7.20;99.90
74822;DHT22;63353;48.702;8.884;2023-04-01T08:31:13;7.10;99.90
74822;DHT22;63353;48.702;8.884;2023-04-01T08:33:42;7.10;99.90
74822;DHT22;63353;48.702;8.884;2023-04-01T08:36:19;7.00;99.90
74822;DHT22;63353;48.702;8.884;2023-04-01T08:38:54;7.00;99.90
74822;DHT22;63353;48.702;8.884;2023-04-01T08:41:33;7.00;99.90
74822;DHT22;63353;48.702;8.884;2023-04-01T08:49:46;7.00;99.90
74822;DHT22;63353;48.702;8.884;2023-04-01T08:58:46;7.40;99.90
74822;DHT22;63353;48.702;8.884;2023-04-01T09:00:54;7.50;99.90
74822;DHT22;63353;48.702;8.884;2023-04-01T09:06:06;7.60;99.90
74822;DHT22;63353;48.702;8.884;2023-04-01T09:11:21;7.80;99.90
74822;DHT22;63353;48.702;8.884;2023-04-01T09:22:27;7.70;99.90
74822;DHT22;63353;48.702;8.884;2023-04-01T09:25:06;7.80;99.90
74822;DHT22;63353;48.702;8.884;2023-04-01T09:27:56;7.70;99.90
74822;DHT22;63353;48.702;8.884;2023-04-01T09:44:37;7.60;99.90
74822;DHT22;63353;48.702;8.884;2023-04-01T10:41:05;9.20;99.90
74822;DHT22;63353;48.702;8.884;2023-04-01T11:42:20;9.10;99.90
74822;DHT22;63353;48.702;8.884;2023-04-01T11:45:21;9.20;99.90
74822;DHT22;63353;48.702;8.884;2023-04-01T11:48:13;9.20;99.90
74822;DHT22;63353;48.702;8.884;2023-04-01T11:51:05;9.50;99.90
74822;DHT22;63353;48.702;8.884;2023-04-01T11:54:03;9.30;99.90
74822;DHT22;63353;48.702;8.884;2023-04-01T12:10:20;9.70;99.90
74822;DHT22;63353;48.702;8.884;2023-04-01T12:19:11;9.10;99.90
74822;DHT22;63353;48.702;8.884;2023-04-01T12:28:06;8.60;99.90
74822;DHT22;63353;48.702;8.884;2023-04-01T12:31:52;8.70;99.90
74822;DHT22;63353;48.702;8.884;2023-04-01T12:45:23;9.70;99.90
74822;DHT22;63353;48.702;8.884;2023-04-01T13:05:36;9.50;99.90
74822;DHT22;63353;48.702;8.884;2023-04-01T13:14:32;9.20;99.90
74822;DHT22;63353;48.702;8.884;2023-04-01T13:17:20;9.20;99.90
74822;DHT22;63353;48.702;8.884;2023-04-01T13:20:12;9.20;99.90
74822;DHT22;63353;48.702;8.884;2023-04-01T13:42:23;9.60;99.90
74822;DHT22;63353;48.702;8.884;2023-04-01T13:45:01;9.80;99.90
74822;DHT22;63353;48.702;8.884;2023-04-01T13:47:52;9.80;99.90
74822;DHT22;63353;48.702;8.884;2023-04-01T13:50:57;9.50;99.90
74822;DHT22;63353;48.702;8.884;2023-04-01T14:02:42;9.40;99.90
74822;DHT22;63353;48.702;8.884;2023-04-01T14:05:47;9.20;99.90
74822;DHT22;63353;48.702;8.884;2023-04-01T14:11:28;9.20;99.90
74822;DHT22;63353;48.702;8.884;2023-04-01T14:33:37;9.70;99.90
74822;DHT22;63353;48.702;8.884;2023-04-01T14:36:28;9.50;99.90
74822;DHT22;63353;48.702;8.884;2023-04-01T14:50:25;9.90;99.90
74822;DHT22;63353;48.702;8.884;2023-04-01T14:58:10;9.10;99.90
74822;DHT22;63353;48.702;8.884;2023-04-01T15:01:07;9.10;99.90
74822;DHT22;63353;48.702;8.884;2023-04-01T15:03:49;9.00;99.90
74822;DHT22;63353;48.702;8.884;2023-04-01T15:20:46;9.30;99.90
74822;DHT22;63353;48.702;8.884;2023-04-01T15:29:17;9.40;99.90
74822;DHT22;63353;48.702;8.884;2023-04-01T15:31:53;9.20;99.90
74822;DHT22;63353;48.702;8.884;2023-04-01T15:37:23;9.40;99.90
74822;DHT22;63353;48.702;8.884;2023-04-01T15:40:17;9.60;99.90
74822;DHT22;63353;48.702;8.884;2023-04-01T16:11:23;9.40;99.90
74822;DHT22;63353;48.702;8.884;2023-04-01T16:20:20;10.10;99.90
74822;DHT22;63353;48.702;8.884;2023-04-01T16:23:18;10.20;99.90
74822;DHT22;63353;48.702;8.884;2023-04-01T16:26:15;9.90;99.90
74822;DHT22;63353;48.702;8.884;2023-04-01T16:28:57;10.10;99.90
74822;DHT22;63353;48.702;8.884;2023-04-01T16:31:46;9.90;99.90
74822;DHT22;63353;48.702;8.884;2023-04-01T16:34:38;9.70;99.90
74822;DHT22;63353;48.702;8.884;2023-04-01T16:37:19;9.70;99.90
74822;DHT22;63353;48.702;8.884;2023-04-01T16:43:04;9.20;99.90
74822;DHT22;63353;48.702;8.884;2023-04-01T16:45:41;9.00;99.90
74822;DHT22;63353;48.702;8.884;2023-04-01T16:48:20;8.90;99.90
74822;DHT22;63353;48.702;8.884;2023-04-01T16:57:01;8.90;99.90
74822;DHT22;63353;48.702;8.884;2023-04-01T17:02:14;8.90;99.90
74822;DHT22;63353;48.702;8.884;2023-04-01T17:15:59;9.40;99.90
74822;DHT22;63353;48.702;8.884;2023-04-01T17:18:51;9.30;99.90
74822;DHT22;63353;48.702;8.884;2023-04-01T17:21:54;9.10;99.90
74822;DHT22;63353;48.702;8.884;2023-04-01T17:47:49;8.40;99.90
74822;DHT22;63353;48.702;8.884;2023-04-01T17:58:18;8.10;99.90
74822;DHT22;63353;48.702;8.884;2023-04-01T18:09:47;7.20;99.90
74822;DHT22;63353;48.702;8.884;2023-04-01T18:12:56;7.00;99.90
74822;DHT22;63353;48.702;8.884;2023-04-01T18:23:38;6.70;99.90
74822;DHT22;63353;48.702;8.884;2023-04-01T18:26:10;6.70;99.90
74822;DHT22;63353;48.702;8.884;2023-04-01T18:28:42;6.60;99.90
74822;DHT22;63353;48.702;8.884;2023-04-01T18:53:21;6.20;99.90
74822;DHT22;63353;48.702;8.884;2023-04-01T18:56:01;6.20;99.90
74822;DHT22;63353;48.702;8.884;2023-04-01T19:01:17;6.10;99.90
74822;DHT22;63353;48.702;8.884;2023-04-01T19:04:05;6.10;99.90
74822;DHT22;63353;48.702;8.884;2023-04-01T19:06:48;6.10;99.90
74822;DHT22;63353;48.702;8.884;2023-04-01T19:09:31;6.10;99.90
74822;DHT22;63353;48.702;8.884;2023-04-01T19:12:24;6.10;99.90
74822;DHT22;63353;48.702;8.884;2023-04-01T19:20:42;6.10;99.90
74822;DHT22;63353;48.702;8.884;2023-04-01T19:25:54;6.20;99.90
74822;DHT22;63353;48.702;8.884;2023-04-01T19:36:48;6.00;99.90
74822;DHT22;63353;48.702;8.884;2023-04-01T19:42:51;6.00;99.90
74822;DHT22;63353;48.702;8.884;2023-04-01T19:45:51;5.90;99.90
74822;DHT22;63353;48.702;8.884;2023-04-01T19:49:41;6.00;99.90
74822;DHT22;63353;48.702;8.884;2023-04-01T19:54:31;5.90;99.90
74822;DHT22;63353;48.702;8.884;2023-04-01T20:00:24;5.90;99.90
74822;DHT22;63353;48.702;8.884;2023-04-01T20:11:34;6.00;99.90
74822;DHT22;63353;48.702;8.884;2023-04-01T20:14:07;6.10;99.90
74822;DHT22;63353;48.702;8.884;2023-04-01T20:36:58;6.30;99.90
74822;DHT22;63353;48.702;8.884;2023-04-01T20:45:37;6.30;99.90
74822;DHT22;63353;48.702;8.884;2023-04-01T20:53:50;6.30;99.90
74822;DHT22;63353;48.702;8.884;2023-04-01T21:33:21;6.30;99.90
74822;DHT22;63353;48.702;8.884;2023-04-01T21:38:40;6.30;99.90
74822;DHT22;63353;48.702;8.884;2023-04-01T21:49:58;6.30;99.90
74822;DHT22;63353;48.702;8.884;2023-04-01T22:03:44;6.10;99.90
74822;DHT22;63353;48.702;8.884;2023-04-01T22:09:33;6.00;99.90
74822;DHT22;63353;48.702;8.884;2023-04-01T22:12:33;6.00;99.90
74822;DHT22;63353;48.702;8.884;2023-04-01T22:17:54;5.90;99.90
74822;DHT22;63353;48.702;8.884;2023-04-01T22:20:53;5.80;99.90
74822;DHT22;63353;48.702;8.884;2023-04-01T22:23:46;5.80;99.90
74822;DHT22;63353;48.702;8.884;2023-04-01T22:56:01;4.90;99.90
74822;DHT22;63353;48.702;8.884;2023-04-01T22:58:36;4.90;99.90
74822;DHT22;63353;48.702;8.884;2023-04-01T23:01:16;4.80;99.90
74822;DHT22;63353;48.702;8.884;2023-04-01T23:03:51;4.80;99.90
74822;DHT22;63353;48.702;8.884;2023-04-01T23:06:21;4.90;99.90
74822;DHT22;63353;48.702;8.884;2023-04-01T23:28:27;4.40;99.90
74822;DHT22;63353;48.702;8.884;2023-04-01T23:30:58;4.40;99.90
74822;DHT22;63353;48.702;8.884;2023-04-01T23:33:33;4.30;99.90
74822;DHT22;63353;48.702;8.884;2023-04-01T23:36:10;4.30;99.90
74822;DHT22;63353;48.702;8.884;2023-04-01T23:38:41;4.20;99.90
74822;DHT22;63353;48.702;8.884;2023-04-01T23:41:30;4.20;99.90
74822;DHT22;63353;48.702;8.884;2023-04-01T23:44:17;4.20;99.90
74822;DHT22;63353;48.702;8.884;2023-04-01T23:46:45;4.20;99.90
74822;DHT22;63353;48.702;8.884;2023-04-01T23:49:19;4.20;99.90
74822;DHT22;63353;48.702;8.884;2023-04-01T23:51:55;4.20;99.90
74822;DHT22;63353;48.702;8.884;2023-04-01T23:54:31;4.20;99.90
74822;DHT22;63353;48.702;8.884;2023-04-01T23:56:57;4.30;99.90
74822;DHT22;63353;48.702;8.884;2023-04-01T23:59:31;4.40;99.90
